sensor_id;sensor_type;location;lat;lon;timestamp;P1;durP1;ratioP1;P2;durP2;ratioP2
9306;SDS011;4691;47.612;7.610;2023-02-24T00:02:22;58.05;;;25.70;;
9306;SDS011;4691;47.612;7.610;2023-02-24T00:04:47;61.58;;;30.92;;
9306;SDS011;4691;47.612;7.610;2023-02-24T00:07:15;61.13;;;29.17;;
9306;SDS011;4691;47.612;7.610;2023-02-24T00:09:42;53.83;;;26.48;;
9306;SDS011;4691;47.612;7.610;2023-02-24T00:12:11;55.75;;;28.45;;
9306;SDS011;4691;47.612;7.610;2023-02-24T00:14:39;50.95;;;24.95;;
9306;SDS011;4691;47.612;7.610;2023-02-24T00:17:06;54.42;;;25.17;;
9306;SDS011;4691;47.612;7.610;2023-02-24T00:19:32;56.92;;;26.35;;
9306;SDS011;4691;47.612;7.610;2023-02-24T00:21:58;58.63;;;27.48;;
9306;SDS011;4691;47.612;7.610;2023-02-24T00:24:23;59.03;;;28.00;;
9306;SDS011;4691;47.612;7.610;2023-02-24T00:26:53;61.53;;;29.25;;
9306;SDS011;4691;47.612;7.610;2023-02-24T00:29:20;52.92;;;24.25;;
9306;SDS011;4691;47.612;7.610;2023-02-24T00:31:48;59.00;;;29.45;;
9306;SDS011;4691;47.612;7.610;2023-02-24T00:34:20;50.08;;;23.10;;
9306;SDS011;4691;47.612;7.610;2023-02-24T00:36:47;47.30;;;22.40;;
9306;SDS011;4691;47.612;7.610;2023-02-24T00:39:13;42.40;;;19.58;;
9306;SDS011;4691;47.612;7.610;2023-02-24T00:41:39;55.17;;;23.23;;
9306;SDS011;4691;47.612;7.610;2023-02-24T00:44:06;46.33;;;21.63;;
9306;SDS011;4691;47.612;7.610;2023-02-24T00:46:37;40.30;;;18.75;;
9306;SDS011;4691;47.612;7.610;2023-02-24T00:49:04;45.85;;;19.38;;
9306;SDS011;4691;47.612;7.610;2023-02-24T00:51:35;41.42;;;18.48;;
9306;SDS011;4691;47.612;7.610;2023-02-24T00:54:02;49.83;;;20.00;;
9306;SDS011;4691;47.612;7.610;2023-02-24T00:56:28;51.83;;;21.33;;
9306;SDS011;4691;47.612;7.610;2023-02-24T00:58:55;42.95;;;17.83;;
9306;SDS011;4691;47.612;7.610;2023-02-24T01:01:24;37.05;;;17.27;;
9306;SDS011;4691;47.612;7.610;2023-02-24T01:03:56;39.33;;;18.67;;
9306;SDS011;4691;47.612;7.610;2023-02-24T01:06:24;48.33;;;22.05;;
9306;SDS011;4691;47.612;7.610;2023-02-24T01:08:52;39.20;;;19.63;;
9306;SDS011;4691;47.612;7.610;2023-02-24T01:11:20;45.60;;;20.45;;
9306;SDS011;4691;47.612;7.610;2023-02-24T01:14:07;45.38;;;21.20;;
9306;SDS011;4691;47.612;7.610;2023-02-24T01:16:35;39.10;;;18.58;;
9306;SDS011;4691;47.612;7.610;2023-02-24T01:19:01;45.83;;;19.42;;
9306;SDS011;4691;47.612;7.610;2023-02-24T01:21:27;42.88;;;19.25;;
9306;SDS011;4691;47.612;7.610;2023-02-24T01:23:52;43.47;;;20.98;;
9306;SDS011;4691;47.612;7.610;2023-02-24T01:26:18;49.47;;;20.75;;
9306;SDS011;4691;47.612;7.610;2023-02-24T01:28:44;46.95;;;21.92;;
9306;SDS011;4691;47.612;7.610;2023-02-24T01:31:10;42.80;;;20.45;;
9306;SDS011;4691;47.612;7.610;2023-02-24T01:33:36;43.20;;;19.83;;
9306;SDS011;4691;47.612;7.610;2023-02-24T01:36:22;61.88;;;24.42;;
9306;SDS011;4691;47.612;7.610;2023-02-24T01:38:49;54.97;;;22.15;;
9306;SDS011;4691;47.612;7.610;2023-02-24T01:41:17;48.70;;;21.65;;
9306;SDS011;4691;47.612;7.610;2023-02-24T01:46:30;31.17;;;18.15;;
9306;SDS011;4691;47.612;7.610;2023-02-24T01:49:02;38.50;;;18.65;;
9306;SDS011;4691;47.612;7.610;2023-02-24T01:51:37;52.00;;;19.40;;
9306;SDS011;4691;47.612;7.610;2023-02-24T01:54:06;49.30;;;20.13;;
9306;SDS011;4691;47.612;7.610;2023-02-24T01:56:35;41.80;;;18.80;;
9306;SDS011;4691;47.612;7.610;2023-02-24T01:59:00;48.65;;;20.58;;
9306;SDS011;4691;47.612;7.610;2023-02-24T02:01:27;48.60;;;19.95;;
9306;SDS011;4691;47.612;7.610;2023-02-24T02:03:54;63.92;;;25.30;;
9306;SDS011;4691;47.612;7.610;2023-02-24T02:06:26;78.32;;;27.30;;
9306;SDS011;4691;47.612;7.610;2023-02-24T02:08:51;73.38;;;26.92;;
9306;SDS011;4691;47.612;7.610;2023-02-24T02:11:17;85.55;;;29.35;;
9306;SDS011;4691;47.612;7.610;2023-02-24T02:13:46;52.67;;;21.05;;
9306;SDS011;4691;47.612;7.610;2023-02-24T02:20:03;35.80;;;17.15;;
9306;SDS011;4691;47.612;7.610;2023-02-24T02:28:11;36.50;;;16.17;;
9306;SDS011;4691;47.612;7.610;2023-02-24T02:45:08;40.75;;;16.85;;
9306;SDS011;4691;47.612;7.610;2023-02-24T02:47:47;45.17;;;19.20;;
9306;SDS011;4691;47.612;7.610;2023-02-24T02:50:23;50.20;;;19.55;;
9306;SDS011;4691;47.612;7.610;2023-02-24T02:52:58;42.13;;;18.35;;
9306;SDS011;4691;47.612;7.610;2023-02-24T02:55:32;50.00;;;20.10;;
9306;SDS011;4691;47.612;7.610;2023-02-24T02:58:05;48.95;;;20.75;;
9306;SDS011;4691;47.612;7.610;2023-02-24T03:00:38;49.55;;;22.90;;
9306;SDS011;4691;47.612;7.610;2023-02-24T03:03:14;51.90;;;19.58;;
9306;SDS011;4691;47.612;7.610;2023-02-24T03:05:44;52.15;;;20.77;;
9306;SDS011;4691;47.612;7.610;2023-02-24T03:08:17;41.53;;;19.05;;
9306;SDS011;4691;47.612;7.610;2023-02-24T03:10:47;47.72;;;20.13;;
9306;SDS011;4691;47.612;7.610;2023-02-24T03:13:15;45.70;;;18.45;;
9306;SDS011;4691;47.612;7.610;2023-02-24T03:15:49;38.25;;;16.95;;
9306;SDS011;4691;47.612;7.610;2023-02-24T03:19:32;40.42;;;16.80;;
9306;SDS011;4691;47.612;7.610;2023-02-24T03:24:51;54.28;;;17.40;;
9306;SDS011;4691;47.612;7.610;2023-02-24T03:27:26;53.20;;;18.20;;
9306;SDS011;4691;47.612;7.610;2023-02-24T03:29:56;64.43;;;22.55;;
9306;SDS011;4691;47.612;7.610;2023-02-24T03:32:31;44.22;;;15.98;;
9306;SDS011;4691;47.612;7.610;2023-02-24T03:37:37;45.20;;;17.38;;
9306;SDS011;4691;47.612;7.610;2023-02-24T03:40:04;46.42;;;17.05;;
9306;SDS011;4691;47.612;7.610;2023-02-24T03:42:42;44.95;;;18.60;;
9306;SDS011;4691;47.612;7.610;2023-02-24T03:45:11;47.03;;;18.38;;
9306;SDS011;4691;47.612;7.610;2023-02-24T03:47:37;49.17;;;16.27;;
9306;SDS011;4691;47.612;7.610;2023-02-24T03:50:15;45.95;;;18.63;;
9306;SDS011;4691;47.612;7.610;2023-02-24T03:52:57;53.17;;;20.27;;
9306;SDS011;4691;47.612;7.610;2023-02-24T04:00:56;49.55;;;19.98;;
9306;SDS011;4691;47.612;7.610;2023-02-24T04:03:34;54.80;;;20.58;;
9306;SDS011;4691;47.612;7.610;2023-02-24T04:06:26;48.28;;;19.38;;
9306;SDS011;4691;47.612;7.610;2023-02-24T04:09:06;40.55;;;17.40;;
9306;SDS011;4691;47.612;7.610;2023-02-24T04:11:44;34.65;;;15.10;;
9306;SDS011;4691;47.612;7.610;2023-02-24T04:14:18;44.08;;;17.65;;
9306;SDS011;4691;47.612;7.610;2023-02-24T04:19:47;40.85;;;15.25;;
9306;SDS011;4691;47.612;7.610;2023-02-24T04:22:16;39.83;;;15.18;;
9306;SDS011;4691;47.612;7.610;2023-02-24T04:24:45;41.63;;;16.13;;
9306;SDS011;4691;47.612;7.610;2023-02-24T04:29:41;48.38;;;17.42;;
9306;SDS011;4691;47.612;7.610;2023-02-24T04:32:13;35.95;;;16.77;;
9306;SDS011;4691;47.612;7.610;2023-02-24T04:34:43;44.92;;;18.77;;
9306;SDS011;4691;47.612;7.610;2023-02-24T04:37:09;37.03;;;16.77;;
9306;SDS011;4691;47.612;7.610;2023-02-24T04:39:35;40.88;;;18.20;;
9306;SDS011;4691;47.612;7.610;2023-02-24T04:42:04;39.80;;;16.25;;
9306;SDS011;4691;47.612;7.610;2023-02-24T04:44:30;47.95;;;18.23;;
9306;SDS011;4691;47.612;7.610;2023-02-24T04:46:57;38.53;;;18.40;;
9306;SDS011;4691;47.612;7.610;2023-02-24T04:49:23;52.50;;;18.90;;
9306;SDS011;4691;47.612;7.610;2023-02-24T04:51:49;58.45;;;21.50;;
9306;SDS011;4691;47.612;7.610;2023-02-24T04:54:16;47.15;;;20.38;;
9306;SDS011;4691;47.612;7.610;2023-02-24T04:56:43;48.22;;;18.88;;
9306;SDS011;4691;47.612;7.610;2023-02-24T04:59:09;50.58;;;20.20;;
9306;SDS011;4691;47.612;7.610;2023-02-24T05:01:36;45.97;;;19.27;;
9306;SDS011;4691;47.612;7.610;2023-02-24T05:04:06;45.35;;;19.92;;
9306;SDS011;4691;47.612;7.610;2023-02-24T05:06:32;44.50;;;19.50;;
9306;SDS011;4691;47.612;7.610;2023-02-24T05:08:58;48.72;;;21.65;;
9306;SDS011;4691;47.612;7.610;2023-02-24T05:11:25;53.03;;;20.20;;
9306;SDS011;4691;47.612;7.610;2023-02-24T05:13:56;55.35;;;22.40;;
9306;SDS011;4691;47.612;7.610;2023-02-24T05:16:21;58.00;;;20.15;;
9306;SDS011;4691;47.612;7.610;2023-02-24T05:18:46;53.30;;;22.30;;
9306;SDS011;4691;47.612;7.610;2023-02-24T05:21:13;47.58;;;21.30;;
9306;SDS011;4691;47.612;7.610;2023-02-24T05:23:59;48.40;;;21.80;;
9306;SDS011;4691;47.612;7.610;2023-02-24T05:26:30;46.03;;;22.90;;
9306;SDS011;4691;47.612;7.610;2023-02-24T05:28:58;51.40;;;19.98;;
9306;SDS011;4691;47.612;7.610;2023-02-24T05:31:26;47.80;;;19.83;;
9306;SDS011;4691;47.612;7.610;2023-02-24T05:33:59;40.40;;;17.77;;
9306;SDS011;4691;47.612;7.610;2023-02-24T05:36:27;54.47;;;20.58;;
9306;SDS011;4691;47.612;7.610;2023-02-24T05:38:55;50.72;;;18.92;;
9306;SDS011;4691;47.612;7.610;2023-02-24T05:41:31;43.90;;;17.60;;
9306;SDS011;4691;47.612;7.610;2023-02-24T05:44:06;53.50;;;20.23;;
9306;SDS011;4691;47.612;7.610;2023-02-24T05:46:39;54.13;;;20.27;;
9306;SDS011;4691;47.612;7.610;2023-02-24T05:49:09;55.20;;;19.85;;
9306;SDS011;4691;47.612;7.610;2023-02-24T05:51:38;43.97;;;18.50;;
9306;SDS011;4691;47.612;7.610;2023-02-24T05:54:08;49.95;;;19.02;;
9306;SDS011;4691;47.612;7.610;2023-02-24T05:56:39;57.75;;;20.48;;
9306;SDS011;4691;47.612;7.610;2023-02-24T05:59:08;49.38;;;19.33;;
9306;SDS011;4691;47.612;7.610;2023-02-24T06:01:36;51.85;;;19.35;;
9306;SDS011;4691;47.612;7.610;2023-02-24T06:04:05;56.15;;;22.20;;
9306;SDS011;4691;47.612;7.610;2023-02-24T06:06:36;58.35;;;21.48;;
9306;SDS011;4691;47.612;7.610;2023-02-24T06:09:06;64.63;;;22.73;;
9306;SDS011;4691;47.612;7.610;2023-02-24T06:11:37;66.13;;;23.63;;
9306;SDS011;4691;47.612;7.610;2023-02-24T06:14:04;59.78;;;21.73;;
9306;SDS011;4691;47.612;7.610;2023-02-24T06:16:33;76.30;;;24.33;;
9306;SDS011;4691;47.612;7.610;2023-02-24T06:19:03;85.75;;;30.05;;
9306;SDS011;4691;47.612;7.610;2023-02-24T06:21:32;87.88;;;29.33;;
9306;SDS011;4691;47.612;7.610;2023-02-24T06:23:59;82.05;;;29.65;;
9306;SDS011;4691;47.612;7.610;2023-02-24T06:26:25;87.80;;;29.67;;
9306;SDS011;4691;47.612;7.610;2023-02-24T06:28:53;95.78;;;28.50;;
9306;SDS011;4691;47.612;7.610;2023-02-24T06:31:20;85.35;;;27.23;;
9306;SDS011;4691;47.612;7.610;2023-02-24T06:33:46;97.63;;;29.98;;
9306;SDS011;4691;47.612;7.610;2023-02-24T06:36:12;80.18;;;27.90;;
9306;SDS011;4691;47.612;7.610;2023-02-24T06:38:41;88.57;;;29.33;;
9306;SDS011;4691;47.612;7.610;2023-02-24T06:41:07;99.75;;;31.25;;
9306;SDS011;4691;47.612;7.610;2023-02-24T06:43:39;110.75;;;32.65;;
9306;SDS011;4691;47.612;7.610;2023-02-24T06:46:07;107.00;;;30.98;;
9306;SDS011;4691;47.612;7.610;2023-02-24T06:48:33;98.47;;;29.13;;
9306;SDS011;4691;47.612;7.610;2023-02-24T06:53:39;103.63;;;32.33;;
9306;SDS011;4691;47.612;7.610;2023-02-24T06:56:16;92.72;;;29.48;;
9306;SDS011;4691;47.612;7.610;2023-02-24T06:58:44;114.38;;;32.28;;
9306;SDS011;4691;47.612;7.610;2023-02-24T07:01:26;117.15;;;43.00;;
9306;SDS011;4691;47.612;7.610;2023-02-24T07:03:56;108.85;;;33.10;;
9306;SDS011;4691;47.612;7.610;2023-02-24T07:06:32;107.78;;;33.97;;
9306;SDS011;4691;47.612;7.610;2023-02-24T07:09:02;94.82;;;32.83;;
9306;SDS011;4691;47.612;7.610;2023-02-24T07:11:30;111.90;;;33.78;;
9306;SDS011;4691;47.612;7.610;2023-02-24T07:13:57;118.95;;;38.42;;
9306;SDS011;4691;47.612;7.610;2023-02-24T07:16:23;108.15;;;34.22;;
9306;SDS011;4691;47.612;7.610;2023-02-24T07:18:52;96.70;;;32.03;;
9306;SDS011;4691;47.612;7.610;2023-02-24T07:21:21;97.32;;;31.98;;
9306;SDS011;4691;47.612;7.610;2023-02-24T07:23:48;103.30;;;33.50;;
9306;SDS011;4691;47.612;7.610;2023-02-24T07:26:20;110.10;;;31.88;;
9306;SDS011;4691;47.612;7.610;2023-02-24T07:28:48;105.55;;;32.10;;
9306;SDS011;4691;47.612;7.610;2023-02-24T07:31:15;98.57;;;31.52;;
9306;SDS011;4691;47.612;7.610;2023-02-24T07:33:42;100.88;;;31.27;;
9306;SDS011;4691;47.612;7.610;2023-02-24T07:36:09;79.03;;;27.38;;
9306;SDS011;4691;47.612;7.610;2023-02-24T07:38:39;96.00;;;31.67;;
9306;SDS011;4691;47.612;7.610;2023-02-24T07:41:06;93.60;;;30.05;;
9306;SDS011;4691;47.612;7.610;2023-02-24T07:43:34;104.37;;;31.60;;
9306;SDS011;4691;47.612;7.610;2023-02-24T07:46:08;82.63;;;29.40;;
9306;SDS011;4691;47.612;7.610;2023-02-24T07:48:36;82.53;;;30.98;;
9306;SDS011;4691;47.612;7.610;2023-02-24T07:53:32;74.50;;;29.63;;
9306;SDS011;4691;47.612;7.610;2023-02-24T07:55:57;72.65;;;28.98;;
9306;SDS011;4691;47.612;7.610;2023-02-24T07:58:22;69.35;;;28.52;;
9306;SDS011;4691;47.612;7.610;2023-02-24T08:00:48;71.20;;;29.02;;
9306;SDS011;4691;47.612;7.610;2023-02-24T08:03:32;85.07;;;31.10;;
9306;SDS011;4691;47.612;7.610;2023-02-24T08:05:58;80.18;;;28.70;;
9306;SDS011;4691;47.612;7.610;2023-02-24T08:08:37;77.60;;;30.10;;
9306;SDS011;4691;47.612;7.610;2023-02-24T08:11:22;83.07;;;28.90;;
9306;SDS011;4691;47.612;7.610;2023-02-24T08:14:02;68.22;;;26.50;;
9306;SDS011;4691;47.612;7.610;2023-02-24T08:16:34;65.70;;;26.10;;
9306;SDS011;4691;47.612;7.610;2023-02-24T08:19:10;71.85;;;27.17;;
9306;SDS011;4691;47.612;7.610;2023-02-24T08:21:41;62.72;;;25.85;;
9306;SDS011;4691;47.612;7.610;2023-02-24T08:24:29;69.03;;;27.42;;
9306;SDS011;4691;47.612;7.610;2023-02-24T08:26:55;58.80;;;27.73;;
9306;SDS011;4691;47.612;7.610;2023-02-24T08:32:32;67.90;;;30.50;;
9306;SDS011;4691;47.612;7.610;2023-02-24T08:37:38;62.13;;;28.00;;
9306;SDS011;4691;47.612;7.610;2023-02-24T08:40:08;47.42;;;23.55;;
9306;SDS011;4691;47.612;7.610;2023-02-24T08:42:57;58.60;;;26.52;;
9306;SDS011;4691;47.612;7.610;2023-02-24T08:45:39;50.47;;;23.02;;
9306;SDS011;4691;47.612;7.610;2023-02-24T08:48:23;49.05;;;24.77;;
9306;SDS011;4691;47.612;7.610;2023-02-24T08:51:02;48.60;;;23.05;;
9306;SDS011;4691;47.612;7.610;2023-02-24T08:53:35;53.10;;;24.73;;
9306;SDS011;4691;47.612;7.610;2023-02-24T08:56:05;49.47;;;24.08;;
9306;SDS011;4691;47.612;7.610;2023-02-24T08:58:39;59.50;;;27.25;;
9306;SDS011;4691;47.612;7.610;2023-02-24T09:01:20;50.05;;;23.63;;
9306;SDS011;4691;47.612;7.610;2023-02-24T09:03:54;46.53;;;22.92;;
9306;SDS011;4691;47.612;7.610;2023-02-24T09:06:47;50.65;;;25.40;;
9306;SDS011;4691;47.612;7.610;2023-02-24T09:09:13;57.70;;;25.48;;
9306;SDS011;4691;47.612;7.610;2023-02-24T09:11:51;55.85;;;26.73;;
9306;SDS011;4691;47.612;7.610;2023-02-24T09:14:31;60.28;;;26.08;;
9306;SDS011;4691;47.612;7.610;2023-02-24T09:17:05;56.85;;;26.58;;
9306;SDS011;4691;47.612;7.610;2023-02-24T09:19:44;63.63;;;27.02;;
9306;SDS011;4691;47.612;7.610;2023-02-24T09:22:20;54.10;;;25.67;;
9306;SDS011;4691;47.612;7.610;2023-02-24T09:25:06;55.75;;;28.10;;
9306;SDS011;4691;47.612;7.610;2023-02-24T09:30:24;53.53;;;27.58;;
9306;SDS011;4691;47.612;7.610;2023-02-24T09:32:59;51.30;;;26.45;;
9306;SDS011;4691;47.612;7.610;2023-02-24T09:35:31;56.17;;;27.13;;
9306;SDS011;4691;47.612;7.610;2023-02-24T09:38:01;49.30;;;24.13;;
9306;SDS011;4691;47.612;7.610;2023-02-24T09:40:31;44.95;;;23.27;;
9306;SDS011;4691;47.612;7.610;2023-02-24T09:43:13;48.50;;;25.63;;
9306;SDS011;4691;47.612;7.610;2023-02-24T09:45:59;52.58;;;26.42;;
9306;SDS011;4691;47.612;7.610;2023-02-24T09:48:39;53.92;;;26.10;;
9306;SDS011;4691;47.612;7.610;2023-02-24T09:51:18;58.10;;;28.00;;
9306;SDS011;4691;47.612;7.610;2023-02-24T09:53:55;47.35;;;26.00;;
9306;SDS011;4691;47.612;7.610;2023-02-24T10:02:08;41.42;;;20.67;;
9306;SDS011;4691;47.612;7.610;2023-02-24T10:04:53;45.47;;;22.63;;
9306;SDS011;4691;47.612;7.610;2023-02-24T10:07:39;45.80;;;22.75;;
9306;SDS011;4691;47.612;7.610;2023-02-24T10:10:13;48.92;;;25.15;;
9306;SDS011;4691;47.612;7.610;2023-02-24T10:12:52;55.88;;;24.15;;
9306;SDS011;4691;47.612;7.610;2023-02-24T10:15:26;41.25;;;22.38;;
9306;SDS011;4691;47.612;7.610;2023-02-24T10:20:57;45.92;;;24.23;;
9306;SDS011;4691;47.612;7.610;2023-02-24T10:26:49;48.13;;;22.85;;
9306;SDS011;4691;47.612;7.610;2023-02-24T10:34:47;43.15;;;22.48;;
9306;SDS011;4691;47.612;7.610;2023-02-24T10:37:18;38.08;;;20.85;;
9306;SDS011;4691;47.612;7.610;2023-02-24T10:39:46;36.60;;;21.45;;
9306;SDS011;4691;47.612;7.610;2023-02-24T10:42:27;43.92;;;24.65;;
9306;SDS011;4691;47.612;7.610;2023-02-24T10:45:07;35.55;;;23.38;;
9306;SDS011;4691;47.612;7.610;2023-02-24T10:47:42;36.50;;;21.23;;
9306;SDS011;4691;47.612;7.610;2023-02-24T10:53:09;41.67;;;22.23;;
9306;SDS011;4691;47.612;7.610;2023-02-24T10:55:54;33.47;;;19.17;;
9306;SDS011;4691;47.612;7.610;2023-02-24T10:58:39;37.38;;;21.95;;
9306;SDS011;4691;47.612;7.610;2023-02-24T11:06:36;33.42;;;21.20;;
9306;SDS011;4691;47.612;7.610;2023-02-24T11:09:05;38.25;;;20.75;;
9306;SDS011;4691;47.612;7.610;2023-02-24T11:12:01;41.63;;;19.70;;
9306;SDS011;4691;47.612;7.610;2023-02-24T11:14:55;35.15;;;18.80;;
9306;SDS011;4691;47.612;7.610;2023-02-24T11:17:45;36.75;;;20.67;;
9306;SDS011;4691;47.612;7.610;2023-02-24T11:20:36;35.15;;;18.80;;
9306;SDS011;4691;47.612;7.610;2023-02-24T11:23:08;33.17;;;17.00;;
9306;SDS011;4691;47.612;7.610;2023-02-24T11:25:42;35.05;;;18.27;;
9306;SDS011;4691;47.612;7.610;2023-02-24T11:28:16;33.97;;;17.83;;
9306;SDS011;4691;47.612;7.610;2023-02-24T11:30:57;36.55;;;17.27;;
9306;SDS011;4691;47.612;7.610;2023-02-24T11:36:30;29.27;;;16.40;;
9306;SDS011;4691;47.612;7.610;2023-02-24T11:41:38;36.22;;;17.65;;
9306;SDS011;4691;47.612;7.610;2023-02-24T11:44:14;45.42;;;21.35;;
9306;SDS011;4691;47.612;7.610;2023-02-24T11:46:48;34.72;;;17.65;;
9306;SDS011;4691;47.612;7.610;2023-02-24T11:49:26;39.22;;;20.85;;
9306;SDS011;4691;47.612;7.610;2023-02-24T11:51:53;33.80;;;18.42;;
9306;SDS011;4691;47.612;7.610;2023-02-24T11:54:21;39.20;;;20.80;;
9306;SDS011;4691;47.612;7.610;2023-02-24T11:56:51;37.47;;;20.38;;
9306;SDS011;4691;47.612;7.610;2023-02-24T11:59:34;34.17;;;18.88;;
9306;SDS011;4691;47.612;7.610;2023-02-24T12:02:14;38.92;;;19.58;;
9306;SDS011;4691;47.612;7.610;2023-02-24T12:05:11;39.63;;;19.77;;
9306;SDS011;4691;47.612;7.610;2023-02-24T12:07:40;31.73;;;18.80;;
9306;SDS011;4691;47.612;7.610;2023-02-24T12:12:55;37.00;;;18.73;;
9306;SDS011;4691;47.612;7.610;2023-02-24T12:15:23;34.22;;;18.65;;
9306;SDS011;4691;47.612;7.610;2023-02-24T12:17:56;36.85;;;18.75;;
9306;SDS011;4691;47.612;7.610;2023-02-24T12:20:35;35.70;;;18.42;;
9306;SDS011;4691;47.612;7.610;2023-02-24T12:23:13;32.22;;;18.80;;
9306;SDS011;4691;47.612;7.610;2023-02-24T12:25:48;31.35;;;16.27;;
9306;SDS011;4691;47.612;7.610;2023-02-24T12:30:56;35.03;;;17.45;;
9306;SDS011;4691;47.612;7.610;2023-02-24T12:36:25;41.25;;;20.27;;
9306;SDS011;4691;47.612;7.610;2023-02-24T12:41:47;35.35;;;17.98;;
9306;SDS011;4691;47.612;7.610;2023-02-24T12:47:11;36.30;;;18.25;;
9306;SDS011;4691;47.612;7.610;2023-02-24T12:52:30;38.13;;;16.38;;
9306;SDS011;4691;47.612;7.610;2023-02-24T12:55:10;39.53;;;17.27;;
9306;SDS011;4691;47.612;7.610;2023-02-24T13:00:39;40.65;;;17.38;;
9306;SDS011;4691;47.612;7.610;2023-02-24T13:10:59;34.10;;;16.13;;
9306;SDS011;4691;47.612;7.610;2023-02-24T13:16:05;40.83;;;17.75;;
9306;SDS011;4691;47.612;7.610;2023-02-24T13:18:31;38.17;;;18.55;;
9306;SDS011;4691;47.612;7.610;2023-02-24T13:23:50;41.40;;;16.63;;
9306;SDS011;4691;47.612;7.610;2023-02-24T13:26:22;38.40;;;17.33;;
9306;SDS011;4691;47.612;7.610;2023-02-24T13:28:56;35.58;;;16.52;;
9306;SDS011;4691;47.612;7.610;2023-02-24T13:31:23;40.05;;;15.75;;
9306;SDS011;4691;47.612;7.610;2023-02-24T13:33:50;40.33;;;14.48;;
9306;SDS011;4691;47.612;7.610;2023-02-24T13:36:21;40.45;;;16.02;;
9306;SDS011;4691;47.612;7.610;2023-02-24T13:38:49;36.75;;;15.35;;
9306;SDS011;4691;47.612;7.610;2023-02-24T13:49:28;38.60;;;15.38;;
9306;SDS011;4691;47.612;7.610;2023-02-24T13:52:02;44.63;;;16.40;;
9306;SDS011;4691;47.612;7.610;2023-02-24T13:54:44;35.05;;;16.33;;
9306;SDS011;4691;47.612;7.610;2023-02-24T14:03:21;43.03;;;15.90;;
9306;SDS011;4691;47.612;7.610;2023-02-24T14:05:50;45.53;;;16.52;;
9306;SDS011;4691;47.612;7.610;2023-02-24T14:11:05;37.50;;;15.75;;
9306;SDS011;4691;47.612;7.610;2023-02-24T14:13:34;38.72;;;16.77;;
9306;SDS011;4691;47.612;7.610;2023-02-24T14:16:05;35.60;;;16.48;;
9306;SDS011;4691;47.612;7.610;2023-02-24T14:18:33;35.00;;;15.32;;
9306;SDS011;4691;47.612;7.610;2023-02-24T14:21:00;41.00;;;16.77;;
9306;SDS011;4691;47.612;7.610;2023-02-24T14:23:27;37.42;;;15.85;;
9306;SDS011;4691;47.612;7.610;2023-02-24T14:25:59;37.20;;;14.88;;
9306;SDS011;4691;47.612;7.610;2023-02-24T14:28:31;39.67;;;16.13;;
9306;SDS011;4691;47.612;7.610;2023-02-24T14:31:02;35.13;;;14.00;;
9306;SDS011;4691;47.612;7.610;2023-02-24T14:33:39;35.40;;;14.00;;
9306;SDS011;4691;47.612;7.610;2023-02-24T14:36:15;32.97;;;13.95;;
9306;SDS011;4691;47.612;7.610;2023-02-24T14:38:44;43.70;;;14.40;;
9306;SDS011;4691;47.612;7.610;2023-02-24T14:41:20;37.75;;;15.00;;
9306;SDS011;4691;47.612;7.610;2023-02-24T14:43:56;37.65;;;15.50;;
9306;SDS011;4691;47.612;7.610;2023-02-24T14:46:22;35.78;;;15.02;;
9306;SDS011;4691;47.612;7.610;2023-02-24T14:48:51;39.42;;;14.52;;
9306;SDS011;4691;47.612;7.610;2023-02-24T14:53:54;34.78;;;14.32;;
9306;SDS011;4691;47.612;7.610;2023-02-24T14:56:24;29.20;;;14.60;;
9306;SDS011;4691;47.612;7.610;2023-02-24T14:58:56;40.58;;;16.15;;
9306;SDS011;4691;47.612;7.610;2023-02-24T15:01:30;35.65;;;16.02;;
9306;SDS011;4691;47.612;7.610;2023-02-24T15:03:58;37.25;;;17.30;;
9306;SDS011;4691;47.612;7.610;2023-02-24T15:06:33;39.65;;;14.63;;
9306;SDS011;4691;47.612;7.610;2023-02-24T15:09:21;38.25;;;16.27;;
9306;SDS011;4691;47.612;7.610;2023-02-24T15:11:50;45.50;;;16.45;;
9306;SDS011;4691;47.612;7.610;2023-02-24T15:14:21;38.85;;;16.60;;
9306;SDS011;4691;47.612;7.610;2023-02-24T15:16:52;39.78;;;16.35;;
9306;SDS011;4691;47.612;7.610;2023-02-24T15:19:30;46.80;;;18.52;;
9306;SDS011;4691;47.612;7.610;2023-02-24T15:22:01;50.60;;;18.38;;
9306;SDS011;4691;47.612;7.610;2023-02-24T15:24:28;37.20;;;16.58;;
9306;SDS011;4691;47.612;7.610;2023-02-24T15:26:57;38.50;;;18.25;;
9306;SDS011;4691;47.612;7.610;2023-02-24T15:29:26;47.15;;;17.65;;
9306;SDS011;4691;47.612;7.610;2023-02-24T15:31:54;46.13;;;17.97;;
9306;SDS011;4691;47.612;7.610;2023-02-24T15:34:24;43.65;;;17.77;;
9306;SDS011;4691;47.612;7.610;2023-02-24T15:36:53;39.53;;;17.25;;
9306;SDS011;4691;47.612;7.610;2023-02-24T15:39:22;41.38;;;18.00;;
9306;SDS011;4691;47.612;7.610;2023-02-24T15:41:51;44.75;;;18.58;;
9306;SDS011;4691;47.612;7.610;2023-02-24T15:44:30;48.67;;;18.58;;
9306;SDS011;4691;47.612;7.610;2023-02-24T15:46:57;37.85;;;19.08;;
9306;SDS011;4691;47.612;7.610;2023-02-24T15:49:24;41.30;;;18.58;;
9306;SDS011;4691;47.612;7.610;2023-02-24T15:51:51;43.50;;;19.52;;
9306;SDS011;4691;47.612;7.610;2023-02-24T15:54:19;48.13;;;20.00;;
9306;SDS011;4691;47.612;7.610;2023-02-24T15:56:51;50.90;;;20.48;;
9306;SDS011;4691;47.612;7.610;2023-02-24T15:59:17;45.28;;;20.90;;
9306;SDS011;4691;47.612;7.610;2023-02-24T16:01:45;54.97;;;21.35;;
9306;SDS011;4691;47.612;7.610;2023-02-24T16:04:10;47.15;;;21.20;;
9306;SDS011;4691;47.612;7.610;2023-02-24T16:06:36;48.15;;;19.67;;
9306;SDS011;4691;47.612;7.610;2023-02-24T16:09:05;49.75;;;20.20;;
9306;SDS011;4691;47.612;7.610;2023-02-24T16:11:37;48.90;;;19.20;;
9306;SDS011;4691;47.612;7.610;2023-02-24T16:14:03;42.55;;;20.05;;
9306;SDS011;4691;47.612;7.610;2023-02-24T16:16:29;49.78;;;22.02;;
9306;SDS011;4691;47.612;7.610;2023-02-24T16:18:57;46.08;;;21.15;;
9306;SDS011;4691;47.612;7.610;2023-02-24T16:21:22;58.28;;;23.80;;
9306;SDS011;4691;47.612;7.610;2023-02-24T16:23:48;48.53;;;22.17;;
9306;SDS011;4691;47.612;7.610;2023-02-24T16:26:15;45.65;;;21.67;;
9306;SDS011;4691;47.612;7.610;2023-02-24T16:28:48;51.92;;;22.33;;
9306;SDS011;4691;47.612;7.610;2023-02-24T16:31:17;54.53;;;21.92;;
9306;SDS011;4691;47.612;7.610;2023-02-24T16:33:43;51.17;;;22.13;;
9306;SDS011;4691;47.612;7.610;2023-02-24T16:36:11;51.90;;;21.95;;
9306;SDS011;4691;47.612;7.610;2023-02-24T16:38:38;52.72;;;21.63;;
9306;SDS011;4691;47.612;7.610;2023-02-24T16:41:03;43.45;;;19.55;;
9306;SDS011;4691;47.612;7.610;2023-02-24T16:43:29;53.78;;;23.02;;
9306;SDS011;4691;47.612;7.610;2023-02-24T16:45:59;50.08;;;22.20;;
9306;SDS011;4691;47.612;7.610;2023-02-24T16:48:26;50.55;;;25.80;;
9306;SDS011;4691;47.612;7.610;2023-02-24T16:50:53;49.85;;;22.17;;
9306;SDS011;4691;47.612;7.610;2023-02-24T16:53:20;44.13;;;22.08;;
9306;SDS011;4691;47.612;7.610;2023-02-24T16:55:46;50.50;;;22.00;;
9306;SDS011;4691;47.612;7.610;2023-02-24T16:58:12;52.60;;;23.50;;
9306;SDS011;4691;47.612;7.610;2023-02-24T17:00:39;47.42;;;21.63;;
9306;SDS011;4691;47.612;7.610;2023-02-24T17:03:43;44.60;;;20.75;;
9306;SDS011;4691;47.612;7.610;2023-02-24T17:06:08;51.28;;;22.23;;
9306;SDS011;4691;47.612;7.610;2023-02-24T17:08:34;51.03;;;23.20;;
9306;SDS011;4691;47.612;7.610;2023-02-24T17:11:00;56.65;;;23.63;;
9306;SDS011;4691;47.612;7.610;2023-02-24T17:13:25;51.45;;;22.48;;
9306;SDS011;4691;47.612;7.610;2023-02-24T17:15:51;52.58;;;22.13;;
9306;SDS011;4691;47.612;7.610;2023-02-24T17:18:21;53.75;;;23.33;;
9306;SDS011;4691;47.612;7.610;2023-02-24T17:20:48;63.58;;;24.05;;
9306;SDS011;4691;47.612;7.610;2023-02-24T17:23:13;56.85;;;24.17;;
9306;SDS011;4691;47.612;7.610;2023-02-24T17:25:38;52.20;;;23.88;;
9306;SDS011;4691;47.612;7.610;2023-02-24T17:28:04;51.63;;;24.10;;
9306;SDS011;4691;47.612;7.610;2023-02-24T17:30:31;56.13;;;24.52;;
9306;SDS011;4691;47.612;7.610;2023-02-24T17:32:58;51.00;;;26.92;;
9306;SDS011;4691;47.612;7.610;2023-02-24T17:35:24;53.85;;;26.05;;